createdAt,value
2023-05-05T00:00:48.343Z,20.08
2023-05-05T00:04:38.680Z,19.42
2023-05-05T00:09:15.349Z,20.02
2023-05-05T00:15:14.588Z,23.15
2023-05-05T00:16:35.370Z,22.55
2023-05-05T00:27:31.784Z,27.23
2023-05-05T00:35:12.916Z,27.67
2023-05-05T00:39:01.996Z,26.02
2023-05-05T00:43:03.522Z,26.23
2023-05-05T00:46:50.115Z,30.27
2023-05-05T00:54:19.237Z,30.23
2023-05-05T00:56:49.417Z,30.65
2023-05-05T00:58:06.935Z,28.65
2023-05-05T01:09:18.664Z,23.70
2023-05-05T01:13:20.548Z,20.88
2023-05-05T01:16:32.594Z,19.23
2023-05-05T01:20:13.151Z,19.30
2023-05-05T01:23:59.049Z,18.35
2023-05-05T01:30:31.246Z,16.98
2023-05-05T01:31:15.577Z,19.60
2023-05-05T01:35:24.085Z,21.38
2023-05-05T01:39:24.066Z,19.48
2023-05-05T01:43:10.116Z,21.15
2023-05-05T01:46:43.520Z,17.30
2023-05-05T01:50:11.275Z,19.88
2023-05-05T01:53:31.669Z,20.70
2023-05-05T01:57:04.728Z,20.63
2023-05-05T02:00:36.459Z,18.15
2023-05-05T02:04:21.935Z,21.40
2023-05-05T02:07:18.396Z,23.52
2023-05-05T02:10:42.920Z,25.52
2023-05-05T02:14:20.483Z,25.88
2023-05-05T02:21:31.264Z,26.17
2023-05-05T02:25:15.993Z,27.65
2023-05-05T02:28:54.300Z,23.92
2023-05-05T02:35:57.271Z,29.85
2023-05-05T02:39:52.272Z,27.00
2023-05-05T02:43:29.059Z,24.90
2023-05-05T02:47:09.010Z,27.65
2023-05-05T02:50:43.987Z,26.00
2023-05-05T02:54:36.541Z,25.13
2023-05-05T03:04:03.840Z,29.52
2023-05-05T03:05:18.309Z,28.80
2023-05-05T03:08:55.632Z,26.60
2023-05-05T03:15:15.593Z,30.20
2023-05-05T03:20:37.407Z,29.75
2023-05-05T03:27:01.776Z,33.13
2023-05-05T03:30:43.297Z,39.38
2023-05-05T03:34:25.005Z,41.63
2023-05-05T03:38:27.403Z,34.60
2023-05-05T03:42:22.303Z,35.20
2023-05-05T03:49:32.461Z,38.22
2023-05-05T03:53:12.715Z,32.75
2023-05-05T04:02:28.891Z,37.25
2023-05-05T04:03:42.498Z,38.55
2023-05-05T04:07:14.714Z,39.90
2023-05-05T04:10:52.314Z,42.40
2023-05-05T04:17:56.772Z,42.33
2023-05-05T04:21:47.877Z,44.40
2023-05-05T04:28:38.811Z,42.53
2023-05-05T04:32:11.713Z,40.00
2023-05-05T04:38:13.209Z,42.10
2023-05-05T04:38:58.300Z,42.08
2023-05-05T04:46:20.753Z,44.17
2023-05-05T04:49:55.061Z,45.22
2023-05-05T04:53:30.359Z,45.67
2023-05-05T04:57:04.391Z,41.80
2023-05-05T05:00:57.567Z,42.13
2023-05-05T05:04:42.697Z,43.92
2023-05-05T05:07:56.876Z,45.50
2023-05-05T05:11:57.132Z,47.40
2023-05-05T05:15:43.698Z,43.45
2023-05-05T05:20:51.351Z,37.00
2023-05-05T05:23:40.264Z,33.22
2023-05-05T05:27:32.509Z,32.05
2023-05-05T05:34:12.825Z,41.00
2023-05-05T05:38:05.224Z,34.50
2023-05-05T05:41:37.256Z,25.13
2023-05-05T05:45:43.027Z,20.20
2023-05-05T05:49:27.460Z,19.77
2023-05-05T05:57:14.103Z,16.00
2023-05-05T06:02:43.752Z,12.77
2023-05-05T06:05:13.900Z,10.57
2023-05-05T06:07:42.261Z,10.23
2023-05-05T06:10:25.672Z,9.18
2023-05-05T06:12:56.031Z,7.57
2023-05-05T06:15:25.601Z,9.75
2023-05-05T06:17:54.072Z,8.48
2023-05-05T06:20:23.808Z,8.27
2023-05-05T06:22:52.146Z,7.97
2023-05-05T06:25:20.388Z,6.72
2023-05-05T06:27:48.848Z,8.88
2023-05-05T06:30:17.860Z,11.95
2023-05-05T06:32:46.268Z,10.48
2023-05-05T06:35:14.564Z,11.20
2023-05-05T06:37:44.359Z,10.20
2023-05-05T06:40:13.509Z,14.35
2023-05-05T06:42:42.495Z,5.63
2023-05-05T06:45:11.470Z,8.07
2023-05-05T06:47:39.737Z,5.78
2023-05-05T06:50:10.200Z,5.35
2023-05-05T06:52:38.752Z,5.55
2023-05-05T06:55:09.754Z,11.60
2023-05-05T06:57:38.398Z,8.80
2023-05-05T07:00:09.942Z,6.72
2023-05-05T07:02:40.089Z,9.20
2023-05-05T07:05:08.883Z,6.20
2023-05-05T07:07:38.325Z,10.90
2023-05-05T07:10:09.840Z,8.43
2023-05-05T07:12:38.531Z,6.53
2023-05-05T07:15:23.448Z,4.75
2023-05-05T07:17:55.616Z,8.30
2023-05-05T07:20:24.337Z,8.43
2023-05-05T07:22:52.898Z,8.50
2023-05-05T07:25:22.889Z,6.07
2023-05-05T07:27:51.367Z,11.90
2023-05-05T07:30:20.054Z,8.05
2023-05-05T07:32:48.590Z,6.22
2023-05-05T07:35:17.009Z,8.02
2023-05-05T07:37:45.962Z,8.45
2023-05-05T07:40:14.876Z,8.38
2023-05-05T07:42:44.675Z,13.50
2023-05-05T07:45:13.116Z,5.68
2023-05-05T07:47:44.489Z,6.60
2023-05-05T07:50:13.247Z,7.70
2023-05-05T07:52:48.327Z,9.77
2023-05-05T07:58:18.479Z,9.82
2023-05-05T08:00:46.940Z,10.50
2023-05-05T08:03:15.359Z,9.82
2023-05-05T08:05:43.927Z,11.18
2023-05-05T08:08:12.196Z,9.00
2023-05-05T08:10:40.532Z,7.93
2023-05-05T08:13:08.968Z,6.10
2023-05-05T08:15:40.029Z,10.02
2023-05-05T08:18:08.469Z,10.43
2023-05-05T08:20:36.740Z,8.77
2023-05-05T08:23:05.206Z,6.38
2023-05-05T08:25:34.595Z,12.82
2023-05-05T08:28:02.989Z,8.63
2023-05-05T08:30:31.641Z,12.32
2023-05-05T08:33:01.615Z,9.27
2023-05-05T08:35:30.170Z,12.82
2023-05-05T08:37:59.353Z,15.15
2023-05-05T08:40:33.036Z,10.63
2023-05-05T08:43:02.625Z,12.02
2023-05-05T08:45:31.444Z,9.52
2023-05-05T08:48:03.223Z,6.90
2023-05-05T08:50:32.932Z,8.98
2023-05-05T08:53:10.648Z,6.43
2023-05-05T08:55:47.528Z,9.57
2023-05-05T08:58:18.768Z,9.05
2023-05-05T09:00:47.913Z,9.25
2023-05-05T09:03:17.902Z,9.48
2023-05-05T09:05:46.661Z,11.52
2023-05-05T09:08:15.053Z,7.22
2023-05-05T09:10:44.868Z,9.77
2023-05-05T09:13:13.554Z,11.25
2023-05-05T09:15:42.922Z,7.55
2023-05-05T09:18:12.222Z,13.30
2023-05-05T09:20:42.793Z,8.38
2023-05-05T09:23:12.935Z,11.75
2023-05-05T09:25:44.310Z,6.30
2023-05-05T09:28:14.698Z,7.18
2023-05-05T09:30:45.754Z,5.20
2023-05-05T09:33:14.753Z,7.32
2023-05-05T09:35:52.138Z,4.72
2023-05-05T09:38:21.503Z,8.50
2023-05-05T09:40:51.573Z,4.15
2023-05-05T09:43:21.535Z,7.20
2023-05-05T09:45:50.512Z,8.25
2023-05-05T09:48:26.538Z,7.38
2023-05-05T09:50:57.095Z,6.78
2023-05-05T09:53:26.514Z,7.43
2023-05-05T09:55:56.227Z,5.05
2023-05-05T09:58:26.128Z,6.40
2023-05-05T10:00:59.140Z,6.90
2023-05-05T10:03:27.843Z,6.50
2023-05-05T10:05:59.631Z,8.40
2023-05-05T10:08:30.641Z,5.78
2023-05-05T10:11:00.994Z,6.43
2023-05-05T10:13:29.797Z,6.97
2023-05-05T10:15:59.148Z,7.85
2023-05-05T10:18:28.671Z,9.60
2023-05-05T10:21:00.135Z,10.77
2023-05-05T10:23:36.135Z,11.88
2023-05-05T10:26:07.212Z,5.60
2023-05-05T10:28:38.746Z,10.50
2023-05-05T10:31:25.061Z,6.88
2023-05-05T10:33:56.440Z,9.25
2023-05-05T10:36:26.626Z,11.73
2023-05-05T10:38:57.870Z,4.72
2023-05-05T10:41:27.328Z,9.30
2023-05-05T10:43:58.256Z,9.82
2023-05-05T10:46:28.218Z,9.45
2023-05-05T10:49:03.379Z,4.45
2023-05-05T10:51:42.328Z,3.08
2023-05-05T10:54:18.100Z,2.03
2023-05-05T10:56:48.256Z,11.23
2023-05-05T10:59:42.398Z,2.47
2023-05-05T11:02:25.213Z,7.38
2023-05-05T11:05:21.152Z,4.53
2023-05-05T11:07:52.158Z,2.28
2023-05-05T11:10:23.080Z,3.22
2023-05-05T11:13:20.161Z,4.43
2023-05-05T11:15:49.950Z,6.13
2023-05-05T11:18:38.338Z,2.90
2023-05-05T11:21:15.643Z,1.75
2023-05-05T11:23:50.330Z,2.20
2023-05-05T11:26:20.359Z,3.08
2023-05-05T11:29:06.567Z,4.10
2023-05-05T11:31:35.060Z,2.53
2023-05-05T11:34:28.921Z,5.15
2023-05-05T11:37:04.167Z,5.55
2023-05-05T11:39:50.843Z,5.90
2023-05-05T11:42:25.868Z,7.78
2023-05-05T11:44:55.578Z,6.50
2023-05-05T11:47:32.406Z,10.55
2023-05-05T11:50:23.531Z,6.43
2023-05-05T11:52:52.165Z,6.00
2023-05-05T11:55:25.050Z,2.63
2023-05-05T11:57:53.570Z,2.00
2023-05-05T12:00:32.998Z,1.48
2023-05-05T12:03:01.523Z,3.65
2023-05-05T12:05:30.048Z,2.08
2023-05-05T12:07:59.702Z,2.25
2023-05-05T12:10:29.704Z,3.25
2023-05-05T12:12:58.273Z,7.47
2023-05-05T12:15:31.491Z,5.25
2023-05-05T12:18:03.425Z,3.25
2023-05-05T12:20:36.705Z,3.13
2023-05-05T12:23:05.683Z,1.25
2023-05-05T12:25:40.323Z,4.20
2023-05-05T12:28:10.125Z,2.30
2023-05-05T12:30:38.632Z,3.30
2023-05-05T12:33:08.281Z,5.85
2023-05-05T12:35:37.886Z,5.25
2023-05-05T12:38:07.822Z,2.92
2023-05-05T12:40:52.967Z,4.07
2023-05-05T12:43:32.191Z,3.38
2023-05-05T12:46:05.617Z,1.65
2023-05-05T12:48:34.329Z,2.80
2023-05-05T12:51:17.488Z,4.72
2023-05-05T12:53:46.281Z,3.13
2023-05-05T12:56:35.804Z,2.10
2023-05-05T12:59:05.033Z,1.95
2023-05-05T13:01:33.713Z,3.95
2023-05-05T13:04:10.861Z,2.13
2023-05-05T13:06:39.892Z,6.38
2023-05-05T13:09:09.133Z,2.63
2023-05-05T13:11:39.524Z,4.30
2023-05-05T13:14:08.893Z,5.05
2023-05-05T13:16:37.455Z,2.38
2023-05-05T13:19:05.797Z,4.97
2023-05-05T13:21:34.250Z,2.58
2023-05-05T13:24:19.064Z,2.08
2023-05-05T13:26:53.430Z,9.68
2023-05-05T13:29:22.480Z,3.22
2023-05-05T13:31:52.892Z,2.63
2023-05-05T13:34:21.199Z,6.00
2023-05-05T13:36:49.638Z,5.35
2023-05-05T13:39:18.343Z,3.97
2023-05-05T13:41:48.108Z,2.90
2023-05-05T13:44:17.896Z,5.25
2023-05-05T13:46:46.486Z,4.43
2023-05-05T13:49:14.893Z,4.53
2023-05-05T13:51:45.219Z,3.72
2023-05-05T13:54:13.760Z,2.10
2023-05-05T13:56:42.326Z,2.70
2023-05-05T13:59:10.776Z,1.20
2023-05-05T14:01:40.759Z,1.52
2023-05-05T14:04:09.715Z,1.52
2023-05-05T14:06:38.101Z,2.45
2023-05-05T14:09:08.067Z,1.77
2023-05-05T14:12:33.495Z,2.42
2023-05-05T14:15:02.044Z,6.88
2023-05-05T14:17:31.799Z,2.13
2023-05-05T14:20:00.274Z,2.80
2023-05-05T14:22:28.953Z,1.27
2023-05-05T14:24:57.531Z,1.63
2023-05-05T14:27:26.090Z,1.90
2023-05-05T14:29:54.653Z,7.30
2023-05-05T14:32:23.246Z,1.05
2023-05-05T14:34:53.024Z,1.95
2023-05-05T14:37:21.378Z,1.50
2023-05-05T14:39:49.897Z,3.83
2023-05-05T14:42:18.243Z,1.25
2023-05-05T14:44:46.752Z,1.52
2023-05-05T14:47:15.264Z,3.55
2023-05-05T14:49:43.708Z,1.55
2023-05-05T14:52:13.473Z,3.42
2023-05-05T14:54:42.253Z,2.95
2023-05-05T14:57:10.684Z,0.70
2023-05-05T14:59:39.103Z,1.48
2023-05-05T15:02:08.398Z,2.22
2023-05-05T15:04:36.788Z,1.25
2023-05-05T15:07:05.116Z,1.48
2023-05-05T15:09:34.940Z,2.28
2023-05-05T15:12:03.307Z,2.38
2023-05-05T15:14:31.638Z,2.72
2023-05-05T15:17:00.034Z,1.52
2023-05-05T15:19:28.440Z,1.67
2023-05-05T15:21:56.736Z,7.68
2023-05-05T15:24:25.108Z,2.25
2023-05-05T15:26:54.843Z,3.17
2023-05-05T15:29:23.283Z,1.50
2023-05-05T15:31:51.761Z,1.83
2023-05-05T15:34:20.093Z,0.60
2023-05-05T15:36:48.530Z,1.80
2023-05-05T15:39:16.972Z,4.65
2023-05-05T15:41:45.364Z,2.22
2023-05-05T15:44:15.388Z,2.45
2023-05-05T15:46:44.004Z,0.77
2023-05-05T15:49:12.406Z,1.85
2023-05-05T15:51:40.905Z,2.95
2023-05-05T15:54:09.407Z,2.13
2023-05-05T15:56:38.084Z,2.78
2023-05-05T15:59:07.684Z,1.13
2023-05-05T16:01:37.511Z,1.65
2023-05-05T16:04:06.330Z,1.90
2023-05-05T16:06:34.618Z,2.72
2023-05-05T16:09:03.870Z,1.98
2023-05-05T16:11:33.668Z,2.28
2023-05-05T16:14:02.079Z,5.40
2023-05-05T16:16:30.773Z,4.25
2023-05-05T16:19:00.786Z,5.78
2023-05-05T16:21:29.246Z,11.18
2023-05-05T16:23:57.627Z,7.78
2023-05-05T16:26:26.112Z,6.43
2023-05-05T16:28:54.398Z,7.72
2023-05-05T16:31:22.828Z,7.47
2023-05-05T16:33:52.158Z,8.63
2023-05-05T16:36:21.973Z,10.07
2023-05-05T16:38:51.332Z,9.95
2023-05-05T16:41:19.807Z,7.07
2023-05-05T16:43:48.292Z,9.50
2023-05-05T16:46:16.785Z,8.57
2023-05-05T16:48:45.887Z,7.90
2023-05-05T16:51:14.219Z,8.75
2023-05-05T16:53:43.963Z,10.93
2023-05-05T16:56:13.154Z,11.23
2023-05-05T16:58:42.371Z,10.07
2023-05-05T17:01:10.769Z,10.18
2023-05-05T17:03:39.436Z,13.27
2023-05-05T17:06:07.995Z,8.52
2023-05-05T17:08:37.364Z,9.13
2023-05-05T17:11:07.238Z,11.98
2023-05-05T17:13:36.264Z,11.52
2023-05-05T17:16:04.906Z,5.35
2023-05-05T17:18:34.758Z,7.82
2023-05-05T17:21:03.143Z,8.50
2023-05-05T17:23:31.889Z,8.57
2023-05-05T17:26:00.619Z,9.48
2023-05-05T17:28:30.331Z,6.30
2023-05-05T17:30:59.991Z,8.50
2023-05-05T17:33:28.360Z,6.03
2023-05-05T17:35:56.845Z,9.57
2023-05-05T17:38:25.235Z,8.85
2023-05-05T17:40:53.832Z,7.65
2023-05-05T17:43:22.443Z,8.90
2023-05-05T17:45:52.282Z,8.25
2023-05-05T17:48:20.750Z,8.80
2023-05-05T17:50:49.301Z,8.68
2023-05-05T17:53:17.688Z,9.57
2023-05-05T17:55:46.654Z,7.35
2023-05-05T17:58:15.114Z,8.70
2023-05-05T18:00:43.467Z,13.43
2023-05-05T18:03:13.514Z,9.10
2023-05-05T18:05:43.300Z,8.63
2023-05-05T18:08:11.719Z,8.30
2023-05-05T18:10:40.183Z,8.65
2023-05-05T18:13:08.580Z,10.75
2023-05-05T18:15:37.209Z,7.82
2023-05-05T18:18:05.964Z,8.73
2023-05-05T18:20:35.670Z,9.55
2023-05-05T18:23:04.058Z,11.27
2023-05-05T18:25:32.537Z,11.05
2023-05-05T18:28:00.915Z,10.52
2023-05-05T18:30:29.389Z,8.77
2023-05-05T18:32:57.947Z,8.48
2023-05-05T18:35:26.284Z,12.57
2023-05-05T18:37:56.364Z,11.82
2023-05-05T18:40:24.796Z,13.27
2023-05-05T18:42:53.155Z,13.05
2023-05-05T18:45:21.780Z,13.10
2023-05-05T18:47:50.221Z,12.25
2023-05-05T18:50:18.761Z,12.95
2023-05-05T18:52:47.315Z,16.30
2023-05-05T18:55:17.190Z,13.68
2023-05-05T18:57:45.655Z,14.15
2023-05-05T19:00:14.994Z,15.85
2023-05-05T19:02:43.481Z,16.05
2023-05-05T19:05:12.112Z,11.68
2023-05-05T19:07:41.513Z,17.15
2023-05-05T19:10:11.648Z,16.50
2023-05-05T19:12:41.517Z,15.27
2023-05-05T19:15:10.918Z,17.98
2023-05-05T19:17:39.501Z,16.13
2023-05-05T19:20:08.972Z,20.02
2023-05-05T19:22:37.291Z,22.98
2023-05-05T19:25:06.569Z,18.17
2023-05-05T19:27:36.891Z,17.95
2023-05-05T19:30:08.009Z,21.35
2023-05-05T19:32:36.838Z,25.27
2023-05-05T19:35:06.852Z,18.75
2023-05-05T19:37:35.483Z,18.42
2023-05-05T19:40:04.056Z,21.42
2023-05-05T19:42:32.569Z,29.17
2023-05-05T19:45:00.977Z,25.38
2023-05-05T19:47:31.378Z,28.45
2023-05-05T19:49:59.773Z,22.65
2023-05-05T19:52:29.226Z,19.75
2023-05-05T19:54:57.909Z,27.13
2023-05-05T19:57:26.430Z,26.05
2023-05-05T19:59:54.795Z,20.90
2023-05-05T20:02:26.483Z,27.30
2023-05-05T20:04:56.466Z,28.65
2023-05-05T20:07:24.849Z,26.98
2023-05-05T20:09:53.252Z,30.20
2023-05-05T20:12:23.220Z,27.42
2023-05-05T20:14:51.581Z,24.65
2023-05-05T20:17:21.503Z,28.85
2023-05-05T20:19:49.938Z,31.50
2023-05-05T20:22:20.645Z,28.90
2023-05-05T20:24:49.337Z,30.73
2023-05-05T20:27:17.662Z,30.70
2023-05-05T20:29:46.418Z,31.45
2023-05-05T20:32:14.944Z,34.92
2023-05-05T20:34:43.415Z,42.67
2023-05-05T20:37:13.797Z,32.33
2023-05-05T20:39:44.003Z,27.77
2023-05-05T20:42:12.639Z,31.88
2023-05-05T20:44:41.431Z,42.33
2023-05-05T20:47:09.970Z,33.05
2023-05-05T20:49:38.639Z,38.72
2023-05-05T20:52:07.325Z,34.92
2023-05-05T20:54:36.144Z,35.70
2023-05-05T20:57:06.944Z,37.60
2023-05-05T20:59:35.415Z,38.72
2023-05-05T21:02:03.775Z,37.40
2023-05-05T21:04:32.538Z,41.42
2023-05-05T21:07:01.323Z,36.45
2023-05-05T21:09:29.638Z,34.63
2023-05-05T21:11:58.197Z,37.25
2023-05-05T21:14:27.960Z,34.83
2023-05-05T21:16:56.762Z,31.70
2023-05-05T21:19:26.199Z,43.63
2023-05-05T21:21:58.972Z,36.55
2023-05-05T21:24:28.233Z,40.72
2023-05-05T21:26:56.963Z,43.65
2023-05-05T21:29:26.022Z,40.65
2023-05-05T21:31:55.754Z,38.58
2023-05-05T21:34:25.350Z,39.35
2023-05-05T21:36:53.656Z,40.60
2023-05-05T21:39:22.101Z,45.30
2023-05-05T21:41:50.797Z,41.05
2023-05-05T21:44:19.448Z,44.50
2023-05-05T21:46:48.378Z,41.42
2023-05-05T21:49:19.225Z,43.03
2023-05-05T21:51:47.731Z,43.08
2023-05-05T21:54:16.329Z,39.20
2023-05-05T21:56:44.745Z,36.63
2023-05-05T21:59:14.339Z,41.30
2023-05-05T22:01:43.846Z,37.35
2023-05-05T22:04:12.277Z,34.63
2023-05-05T22:06:42.379Z,29.55
2023-05-05T22:09:11.054Z,30.15
2023-05-05T22:11:39.836Z,22.83
2023-05-05T22:14:08.786Z,20.90
2023-05-05T22:16:37.497Z,24.98
2023-05-05T22:19:06.897Z,22.45
2023-05-05T22:21:35.435Z,21.00
2023-05-05T22:24:07.273Z,22.75
2023-05-05T22:26:35.945Z,21.15
2023-05-05T22:29:04.294Z,20.70
2023-05-05T22:31:32.962Z,16.70
2023-05-05T22:34:01.265Z,20.95
2023-05-05T22:36:30.614Z,17.25
2023-05-05T22:38:59.479Z,19.08
2023-05-05T22:41:29.197Z,16.48
2023-05-05T22:43:57.870Z,19.10
2023-05-05T22:46:26.494Z,17.42
2023-05-05T22:48:55.474Z,18.20
2023-05-05T22:51:24.477Z,14.48
2023-05-05T22:53:52.875Z,14.93
2023-05-05T22:56:21.156Z,13.65
2023-05-05T22:58:51.023Z,17.80
2023-05-05T23:01:19.558Z,14.55
2023-05-05T23:03:48.234Z,16.88
2023-05-05T23:06:16.618Z,20.00
2023-05-05T23:08:45.348Z,17.02
2023-05-05T23:11:13.664Z,14.90
2023-05-05T23:13:42.030Z,18.92
2023-05-05T23:16:11.924Z,18.38
2023-05-05T23:18:40.385Z,15.77
2023-05-05T23:21:08.927Z,17.73
2023-05-05T23:23:37.308Z,16.83
2023-05-05T23:26:05.666Z,19.58
2023-05-05T23:28:34.087Z,17.17
2023-05-05T23:31:02.521Z,19.17
2023-05-05T23:33:32.419Z,21.35
2023-05-05T23:36:00.787Z,21.98
2023-05-05T23:38:29.430Z,20.77
2023-05-05T23:40:57.733Z,17.92
2023-05-05T23:43:26.250Z,17.75
2023-05-05T23:45:54.668Z,20.08
2023-05-05T23:48:23.094Z,19.02
2023-05-05T23:50:53.782Z,21.45
2023-05-05T23:53:22.184Z,21.75
2023-05-05T23:55:50.501Z,22.33
2023-05-05T23:58:18.887Z,21.00
